sensor_id;sensor_type;location;lat;lon;timestamp;temperature;humidity
17066;DHT22;23120;52.336;21.182;2023-06-10T00:02:05;19.00;63.10
17066;DHT22;23120;52.336;21.182;2023-06-10T00:04:33;19.00;63.20
17066;DHT22;23120;52.336;21.182;2023-06-10T00:07:01;19.00;63.30
17066;DHT22;23120;52.336;21.182;2023-06-10T00:09:29;18.90;63.40
17066;DHT22;23120;52.336;21.182;2023-06-10T00:11:56;18.80;63.20
17066;DHT22;23120;52.336;21.182;2023-06-10T00:14:25;18.80;63.00
17066;DHT22;23120;52.336;21.182;2023-06-10T00:16:52;18.80;62.90
17066;DHT22;23120;52.336;21.182;2023-06-10T00:19:19;18.70;62.90
17066;DHT22;23120;52.336;21.182;2023-06-10T00:21:51;18.70;63.20
17066;DHT22;23120;52.336;21.182;2023-06-10T00:24:20;18.60;63.10
17066;DHT22;23120;52.336;21.182;2023-06-10T00:26:47;18.60;62.70
17066;DHT22;23120;52.336;21.182;2023-06-10T00:29:14;18.50;62.50
17066;DHT22;23120;52.336;21.182;2023-06-10T00:31:41;18.40;62.00
17066;DHT22;23120;52.336;21.182;2023-06-10T00:34:08;18.40;62.00
17066;DHT22;23120;52.336;21.182;2023-06-10T00:36:35;18.40;62.10
17066;DHT22;23120;52.336;21.182;2023-06-10T00:39:03;18.30;61.90
17066;DHT22;23120;52.336;21.182;2023-06-10T00:41:31;18.30;61.80
17066;DHT22;23120;52.336;21.182;2023-06-10T00:43:59;18.20;61.50
17066;DHT22;23120;52.336;21.182;2023-06-10T00:46:26;18.20;61.60
17066;DHT22;23120;52.336;21.182;2023-06-10T00:48:55;18.10;61.80
17066;DHT22;23120;52.336;21.182;2023-06-10T00:51:22;18.10;61.90
17066;DHT22;23120;52.336;21.182;2023-06-10T00:53:49;18.00;61.80
17066;DHT22;23120;52.336;21.182;2023-06-10T00:56:16;18.00;62.00
17066;DHT22;23120;52.336;21.182;2023-06-10T00:58:44;17.90;62.00
17066;DHT22;23120;52.336;21.182;2023-06-10T01:01:11;17.90;62.00
17066;DHT22;23120;52.336;21.182;2023-06-10T01:03:39;17.80;62.10
17066;DHT22;23120;52.336;21.182;2023-06-10T01:06:10;17.80;62.30
17066;DHT22;23120;52.336;21.182;2023-06-10T01:08:50;17.70;62.20
17066;DHT22;23120;52.336;21.182;2023-06-10T01:11:22;17.70;62.20
17066;DHT22;23120;52.336;21.182;2023-06-10T01:13:55;17.60;62.50
17066;DHT22;23120;52.336;21.182;2023-06-10T01:16:23;17.60;62.20
17066;DHT22;23120;52.336;21.182;2023-06-10T01:18:51;17.60;62.30
17066;DHT22;23120;52.336;21.182;2023-06-10T01:21:21;17.50;62.20
17066;DHT22;23120;52.336;21.182;2023-06-10T01:23:50;17.50;62.10
17066;DHT22;23120;52.336;21.182;2023-06-10T01:26:20;17.40;62.10
17066;DHT22;23120;52.336;21.182;2023-06-10T01:28:54;17.40;62.30
17066;DHT22;23120;52.336;21.182;2023-06-10T01:31:31;17.30;62.20
17066;DHT22;23120;52.336;21.182;2023-06-10T01:34:03;17.30;62.20
17066;DHT22;23120;52.336;21.182;2023-06-10T01:36:35;17.20;62.00
17066;DHT22;23120;52.336;21.182;2023-06-10T01:39:04;17.10;62.00
17066;DHT22;23120;52.336;21.182;2023-06-10T01:41:31;17.00;62.00
17066;DHT22;23120;52.336;21.182;2023-06-10T01:43:59;17.00;62.20
17066;DHT22;23120;52.336;21.182;2023-06-10T01:46:26;17.00;62.30
17066;DHT22;23120;52.336;21.182;2023-06-10T01:48:53;16.90;62.40
17066;DHT22;23120;52.336;21.182;2023-06-10T01:51:20;16.90;62.50
17066;DHT22;23120;52.336;21.182;2023-06-10T01:53:48;16.90;62.80
17066;DHT22;23120;52.336;21.182;2023-06-10T01:56:15;16.80;62.90
17066;DHT22;23120;52.336;21.182;2023-06-10T01:58:45;16.80;63.10
17066;DHT22;23120;52.336;21.182;2023-06-10T02:01:12;16.70;62.80
17066;DHT22;23120;52.336;21.182;2023-06-10T02:03:39;16.80;63.10
17066;DHT22;23120;52.336;21.182;2023-06-10T02:06:08;16.70;63.10
17066;DHT22;23120;52.336;21.182;2023-06-10T02:08:35;16.60;63.30
17066;DHT22;23120;52.336;21.182;2023-06-10T02:11:03;16.60;63.50
17066;DHT22;23120;52.336;21.182;2023-06-10T02:13:30;16.60;63.50
17066;DHT22;23120;52.336;21.182;2023-06-10T02:15:57;16.60;64.80
17066;DHT22;23120;52.336;21.182;2023-06-10T02:18:28;16.60;63.70
17066;DHT22;23120;52.336;21.182;2023-06-10T02:20:55;16.50;64.30
17066;DHT22;23120;52.336;21.182;2023-06-10T02:23:22;16.50;65.00
17066;DHT22;23120;52.336;21.182;2023-06-10T02:25:49;16.50;64.80
17066;DHT22;23120;52.336;21.182;2023-06-10T02:28:18;16.40;64.90
17066;DHT22;23120;52.336;21.182;2023-06-10T02:30:45;16.40;65.20
17066;DHT22;23120;52.336;21.182;2023-06-10T02:33:13;16.40;65.20
17066;DHT22;23120;52.336;21.182;2023-06-10T02:35:41;16.40;65.30
17066;DHT22;23120;52.336;21.182;2023-06-10T02:38:07;16.30;65.60
17066;DHT22;23120;52.336;21.182;2023-06-10T02:40:35;16.40;65.80
17066;DHT22;23120;52.336;21.182;2023-06-10T02:43:01;16.30;66.00
17066;DHT22;23120;52.336;21.182;2023-06-10T02:45:30;16.30;66.10
17066;DHT22;23120;52.336;21.182;2023-06-10T02:47:58;16.30;66.10
17066;DHT22;23120;52.336;21.182;2023-06-10T02:50:25;16.30;66.20
17066;DHT22;23120;52.336;21.182;2023-06-10T02:53:00;16.30;66.20
17066;DHT22;23120;52.336;21.182;2023-06-10T02:55:27;16.30;66.60
17066;DHT22;23120;52.336;21.182;2023-06-10T02:57:59;16.30;67.00
17066;DHT22;23120;52.336;21.182;2023-06-10T03:00:27;16.30;66.90
17066;DHT22;23120;52.336;21.182;2023-06-10T03:02:55;16.30;67.00
17066;DHT22;23120;52.336;21.182;2023-06-10T03:05:28;16.30;67.40
17066;DHT22;23120;52.336;21.182;2023-06-10T03:07:56;16.30;67.60
17066;DHT22;23120;52.336;21.182;2023-06-10T03:10:24;16.30;67.70
17066;DHT22;23120;52.336;21.182;2023-06-10T03:12:52;16.30;68.00
17066;DHT22;23120;52.336;21.182;2023-06-10T03:15:22;16.30;67.90
17066;DHT22;23120;52.336;21.182;2023-06-10T03:17:50;16.30;67.90
17066;DHT22;23120;52.336;21.182;2023-06-10T03:20:18;16.30;68.00
17066;DHT22;23120;52.336;21.182;2023-06-10T03:22:46;16.30;68.90
17066;DHT22;23120;52.336;21.182;2023-06-10T03:25:13;16.30;68.80
17066;DHT22;23120;52.336;21.182;2023-06-10T03:27:43;16.30;68.90
17066;DHT22;23120;52.336;21.182;2023-06-10T03:30:12;16.40;68.80
17066;DHT22;23120;52.336;21.182;2023-06-10T03:32:41;16.40;69.00
17066;DHT22;23120;52.336;21.182;2023-06-10T03:35:10;16.30;68.80
17066;DHT22;23120;52.336;21.182;2023-06-10T03:37:39;16.40;69.00
17066;DHT22;23120;52.336;21.182;2023-06-10T03:40:07;16.40;69.00
17066;DHT22;23120;52.336;21.182;2023-06-10T03:42:36;16.50;69.10
17066;DHT22;23120;52.336;21.182;2023-06-10T03:45:06;16.50;69.10
17066;DHT22;23120;52.336;21.182;2023-06-10T03:47:35;16.50;69.10
17066;DHT22;23120;52.336;21.182;2023-06-10T03:50:05;16.50;69.10
17066;DHT22;23120;52.336;21.182;2023-06-10T03:52:33;16.60;69.20
17066;DHT22;23120;52.336;21.182;2023-06-10T03:55:02;16.60;69.30
17066;DHT22;23120;52.336;21.182;2023-06-10T03:57:30;16.60;69.20
17066;DHT22;23120;52.336;21.182;2023-06-10T03:59:57;16.70;69.70
17066;DHT22;23120;52.336;21.182;2023-06-10T04:02:24;16.70;69.30
17066;DHT22;23120;52.336;21.182;2023-06-10T04:04:51;16.80;69.80
17066;DHT22;23120;52.336;21.182;2023-06-10T04:07:19;16.90;69.80
17066;DHT22;23120;52.336;21.182;2023-06-10T04:09:47;16.90;69.50
17066;DHT22;23120;52.336;21.182;2023-06-10T04:12:15;17.00;69.60
17066;DHT22;23120;52.336;21.182;2023-06-10T04:14:42;17.00;69.80
17066;DHT22;23120;52.336;21.182;2023-06-10T04:17:11;17.10;69.80
17066;DHT22;23120;52.336;21.182;2023-06-10T04:19:38;17.10;69.70
17066;DHT22;23120;52.336;21.182;2023-06-10T04:22:06;17.20;69.80
17066;DHT22;23120;52.336;21.182;2023-06-10T04:24:33;17.30;69.80
17066;DHT22;23120;52.336;21.182;2023-06-10T04:27:00;17.40;69.60
17066;DHT22;23120;52.336;21.182;2023-06-10T04:29:29;17.40;69.90
17066;DHT22;23120;52.336;21.182;2023-06-10T04:31:56;17.50;69.50
17066;DHT22;23120;52.336;21.182;2023-06-10T04:34:23;17.60;69.80
17066;DHT22;23120;52.336;21.182;2023-06-10T04:36:52;17.60;69.00
17066;DHT22;23120;52.336;21.182;2023-06-10T04:39:19;17.70;69.10
17066;DHT22;23120;52.336;21.182;2023-06-10T04:41:46;17.80;69.70
17066;DHT22;23120;52.336;21.182;2023-06-10T04:44:14;17.80;68.60
17066;DHT22;23120;52.336;21.182;2023-06-10T04:46:43;17.90;68.50
17066;DHT22;23120;52.336;21.182;2023-06-10T04:49:11;18.00;68.60
17066;DHT22;23120;52.336;21.182;2023-06-10T04:51:40;18.00;68.80
17066;DHT22;23120;52.336;21.182;2023-06-10T04:54:08;18.10;69.00
17066;DHT22;23120;52.336;21.182;2023-06-10T04:56:35;18.20;68.90
17066;DHT22;23120;52.336;21.182;2023-06-10T04:59:02;18.30;68.80
17066;DHT22;23120;52.336;21.182;2023-06-10T05:01:29;18.40;68.70
17066;DHT22;23120;52.336;21.182;2023-06-10T05:03:58;18.50;68.50
17066;DHT22;23120;52.336;21.182;2023-06-10T05:06:24;18.70;68.50
17066;DHT22;23120;52.336;21.182;2023-06-10T05:08:51;18.80;68.30
17066;DHT22;23120;52.336;21.182;2023-06-10T05:11:18;18.90;68.10
17066;DHT22;23120;52.336;21.182;2023-06-10T05:13:45;19.00;67.90
17066;DHT22;23120;52.336;21.182;2023-06-10T05:16:12;19.20;67.30
17066;DHT22;23120;52.336;21.182;2023-06-10T05:18:40;19.30;67.30
17066;DHT22;23120;52.336;21.182;2023-06-10T05:21:09;19.30;66.80
17066;DHT22;23120;52.336;21.182;2023-06-10T05:23:37;19.40;66.90
17066;DHT22;23120;52.336;21.182;2023-06-10T05:26:03;19.50;66.70
17066;DHT22;23120;52.336;21.182;2023-06-10T05:28:30;19.50;66.50
17066;DHT22;23120;52.336;21.182;2023-06-10T05:30:57;19.60;66.60
17066;DHT22;23120;52.336;21.182;2023-06-10T05:33:24;19.60;66.60
17066;DHT22;23120;52.336;21.182;2023-06-10T05:35:51;19.70;66.30
17066;DHT22;23120;52.336;21.182;2023-06-10T05:38:19;19.80;66.50
17066;DHT22;23120;52.336;21.182;2023-06-10T05:40:46;19.80;66.30
17066;DHT22;23120;52.336;21.182;2023-06-10T05:43:13;19.90;65.80
17066;DHT22;23120;52.336;21.182;2023-06-10T05:45:42;19.90;65.80
17066;DHT22;23120;52.336;21.182;2023-06-10T05:48:09;20.00;65.60
17066;DHT22;23120;52.336;21.182;2023-06-10T05:50:36;20.10;65.50
17066;DHT22;23120;52.336;21.182;2023-06-10T05:53:05;20.10;65.30
17066;DHT22;23120;52.336;21.182;2023-06-10T05:55:35;20.20;65.30
17066;DHT22;23120;52.336;21.182;2023-06-10T05:58:01;20.20;65.40
17066;DHT22;23120;52.336;21.182;2023-06-10T06:00:28;20.30;64.90
17066;DHT22;23120;52.336;21.182;2023-06-10T06:02:55;20.30;65.00
17066;DHT22;23120;52.336;21.182;2023-06-10T06:05:24;20.40;65.10
17066;DHT22;23120;52.336;21.182;2023-06-10T06:07:54;20.50;65.10
17066;DHT22;23120;52.336;21.182;2023-06-10T06:10:21;20.50;64.90
17066;DHT22;23120;52.336;21.182;2023-06-10T06:12:50;20.60;64.70
17066;DHT22;23120;52.336;21.182;2023-06-10T06:15:17;20.70;64.80
17066;DHT22;23120;52.336;21.182;2023-06-10T06:17:44;20.80;65.10
17066;DHT22;23120;52.336;21.182;2023-06-10T06:20:12;21.00;65.00
17066;DHT22;23120;52.336;21.182;2023-06-10T06:22:38;21.10;64.80
17066;DHT22;23120;52.336;21.182;2023-06-10T06:25:06;21.20;64.50
17066;DHT22;23120;52.336;21.182;2023-06-10T06:27:33;21.30;64.30
17066;DHT22;23120;52.336;21.182;2023-06-10T06:30:02;21.40;64.30
17066;DHT22;23120;52.336;21.182;2023-06-10T06:32:29;21.50;64.30
17066;DHT22;23120;52.336;21.182;2023-06-10T06:34:57;21.70;64.30
17066;DHT22;23120;52.336;21.182;2023-06-10T06:37:25;21.80;63.00
17066;DHT22;23120;52.336;21.182;2023-06-10T06:40:04;22.00;63.30
17066;DHT22;23120;52.336;21.182;2023-06-10T06:42:31;22.10;63.00
17066;DHT22;23120;52.336;21.182;2023-06-10T06:45:11;22.30;63.00
17066;DHT22;23120;52.336;21.182;2023-06-10T06:47:38;22.50;62.20
17066;DHT22;23120;52.336;21.182;2023-06-10T06:50:05;22.60;61.40
17066;DHT22;23120;52.336;21.182;2023-06-10T06:52:32;22.70;60.10
17066;DHT22;23120;52.336;21.182;2023-06-10T06:55:00;22.80;59.90
17066;DHT22;23120;52.336;21.182;2023-06-10T06:57:26;22.90;59.80
17066;DHT22;23120;52.336;21.182;2023-06-10T06:59:55;22.90;59.70
17066;DHT22;23120;52.336;21.182;2023-06-10T07:02:24;23.00;59.90
17066;DHT22;23120;52.336;21.182;2023-06-10T07:04:50;23.00;60.30
17066;DHT22;23120;52.336;21.182;2023-06-10T07:07:21;23.10;59.80
17066;DHT22;23120;52.336;21.182;2023-06-10T07:09:47;23.10;59.20
17066;DHT22;23120;52.336;21.182;2023-06-10T07:12:14;23.20;59.50
17066;DHT22;23120;52.336;21.182;2023-06-10T07:14:41;23.20;58.90
17066;DHT22;23120;52.336;21.182;2023-06-10T07:17:08;23.20;59.10
17066;DHT22;23120;52.336;21.182;2023-06-10T07:19:36;23.30;59.40
17066;DHT22;23120;52.336;21.182;2023-06-10T07:22:04;23.30;59.60
17066;DHT22;23120;52.336;21.182;2023-06-10T07:24:30;23.40;59.60
17066;DHT22;23120;52.336;21.182;2023-06-10T07:26:57;23.50;59.20
17066;DHT22;23120;52.336;21.182;2023-06-10T07:29:24;23.60;59.30
17066;DHT22;23120;52.336;21.182;2023-06-10T07:31:51;23.70;58.70
17066;DHT22;23120;52.336;21.182;2023-06-10T07:34:23;23.80;58.40
17066;DHT22;23120;52.336;21.182;2023-06-10T07:37:07;23.90;58.20
17066;DHT22;23120;52.336;21.182;2023-06-10T07:39:34;24.10;58.40
17066;DHT22;23120;52.336;21.182;2023-06-10T07:42:01;24.10;57.90
17066;DHT22;23120;52.336;21.182;2023-06-10T07:44:28;24.20;57.80
17066;DHT22;23120;52.336;21.182;2023-06-10T07:46:58;24.30;57.30
17066;DHT22;23120;52.336;21.182;2023-06-10T07:49:25;24.30;57.30
17066;DHT22;23120;52.336;21.182;2023-06-10T07:51:53;24.40;58.00
17066;DHT22;23120;52.336;21.182;2023-06-10T07:54:22;24.50;58.10
17066;DHT22;23120;52.336;21.182;2023-06-10T07:56:48;24.60;58.20
17066;DHT22;23120;52.336;21.182;2023-06-10T07:59:17;24.70;58.30
17066;DHT22;23120;52.336;21.182;2023-06-10T08:01:44;24.80;57.80
17066;DHT22;23120;52.336;21.182;2023-06-10T08:04:11;24.90;57.70
17066;DHT22;23120;52.336;21.182;2023-06-10T08:06:38;25.00;56.90
17066;DHT22;23120;52.336;21.182;2023-06-10T08:09:05;25.00;56.00
17066;DHT22;23120;52.336;21.182;2023-06-10T08:11:33;25.10;56.00
17066;DHT22;23120;52.336;21.182;2023-06-10T08:14:00;25.20;56.40
17066;DHT22;23120;52.336;21.182;2023-06-10T08:16:27;25.20;55.60
17066;DHT22;23120;52.336;21.182;2023-06-10T08:18:54;25.30;55.30
17066;DHT22;23120;52.336;21.182;2023-06-10T08:21:21;25.30;56.30
17066;DHT22;23120;52.336;21.182;2023-06-10T08:23:49;25.20;57.80
17066;DHT22;23120;52.336;21.182;2023-06-10T08:26:18;25.20;56.70
17066;DHT22;23120;52.336;21.182;2023-06-10T08:28:46;25.10;56.60
17066;DHT22;23120;52.336;21.182;2023-06-10T08:31:14;25.10;56.00
17066;DHT22;23120;52.336;21.182;2023-06-10T08:33:42;25.10;56.50
17066;DHT22;23120;52.336;21.182;2023-06-10T08:36:08;25.10;56.90
17066;DHT22;23120;52.336;21.182;2023-06-10T08:38:35;25.10;57.10
17066;DHT22;23120;52.336;21.182;2023-06-10T08:41:05;25.40;55.70
17066;DHT22;23120;52.336;21.182;2023-06-10T08:43:34;25.60;55.30
17066;DHT22;23120;52.336;21.182;2023-06-10T08:46:07;25.80;54.70
17066;DHT22;23120;52.336;21.182;2023-06-10T08:48:38;25.90;55.30
17066;DHT22;23120;52.336;21.182;2023-06-10T08:51:10;26.00;54.50
17066;DHT22;23120;52.336;21.182;2023-06-10T08:53:38;26.10;53.20
17066;DHT22;23120;52.336;21.182;2023-06-10T08:56:09;26.10;53.20
17066;DHT22;23120;52.336;21.182;2023-06-10T08:58:37;26.20;52.30
17066;DHT22;23120;52.336;21.182;2023-06-10T09:01:08;26.00;52.20
17066;DHT22;23120;52.336;21.182;2023-06-10T09:03:37;25.90;52.70
17066;DHT22;23120;52.336;21.182;2023-06-10T09:06:05;26.10;53.10
17066;DHT22;23120;52.336;21.182;2023-06-10T09:08:33;26.20;51.80
17066;DHT22;23120;52.336;21.182;2023-06-10T09:11:01;26.40;52.50
17066;DHT22;23120;52.336;21.182;2023-06-10T09:13:28;26.40;52.50
17066;DHT22;23120;52.336;21.182;2023-06-10T09:15:55;26.50;51.60
17066;DHT22;23120;52.336;21.182;2023-06-10T09:18:27;26.60;51.40
17066;DHT22;23120;52.336;21.182;2023-06-10T09:20:54;26.70;50.30
17066;DHT22;23120;52.336;21.182;2023-06-10T09:23:21;26.90;51.50
17066;DHT22;23120;52.336;21.182;2023-06-10T09:25:56;27.00;50.90
17066;DHT22;23120;52.336;21.182;2023-06-10T09:28:23;27.10;51.30
17066;DHT22;23120;52.336;21.182;2023-06-10T09:30:50;27.20;49.30
17066;DHT22;23120;52.336;21.182;2023-06-10T09:33:29;27.30;49.00
17066;DHT22;23120;52.336;21.182;2023-06-10T09:35:55;27.40;48.60
17066;DHT22;23120;52.336;21.182;2023-06-10T09:38:29;27.50;46.90
17066;DHT22;23120;52.336;21.182;2023-06-10T09:40:56;27.50;46.90
17066;DHT22;23120;52.336;21.182;2023-06-10T09:43:38;27.50;46.90
17066;DHT22;23120;52.336;21.182;2023-06-10T09:46:05;27.60;46.90
17066;DHT22;23120;52.336;21.182;2023-06-10T09:48:41;27.70;46.50
17066;DHT22;23120;52.336;21.182;2023-06-10T09:51:09;27.70;47.10
17066;DHT22;23120;52.336;21.182;2023-06-10T09:53:36;27.70;47.00
17066;DHT22;23120;52.336;21.182;2023-06-10T09:56:03;27.80;47.00
17066;DHT22;23120;52.336;21.182;2023-06-10T09:58:35;27.80;45.10
17066;DHT22;23120;52.336;21.182;2023-06-10T10:01:05;27.90;44.30
17066;DHT22;23120;52.336;21.182;2023-06-10T10:03:31;27.70;44.00
17066;DHT22;23120;52.336;21.182;2023-06-10T10:06:00;27.90;44.50
17066;DHT22;23120;52.336;21.182;2023-06-10T10:08:27;28.00;43.70
17066;DHT22;23120;52.336;21.182;2023-06-10T10:10:55;27.90;44.50
17066;DHT22;23120;52.336;21.182;2023-06-10T10:13:24;28.00;44.00
17066;DHT22;23120;52.336;21.182;2023-06-10T10:15:51;28.00;44.40
17066;DHT22;23120;52.336;21.182;2023-06-10T10:18:20;28.20;44.90
17066;DHT22;23120;52.336;21.182;2023-06-10T10:20:54;28.40;44.20
17066;DHT22;23120;52.336;21.182;2023-06-10T10:23:26;28.60;44.10
17066;DHT22;23120;52.336;21.182;2023-06-10T10:25:57;28.60;45.00
17066;DHT22;23120;52.336;21.182;2023-06-10T10:28:34;28.80;44.50
17066;DHT22;23120;52.336;21.182;2023-06-10T10:31:08;28.90;43.60
17066;DHT22;23120;52.336;21.182;2023-06-10T10:33:42;28.90;44.20
17066;DHT22;23120;52.336;21.182;2023-06-10T10:36:12;29.10;43.70
17066;DHT22;23120;52.336;21.182;2023-06-10T10:38:42;29.10;42.70
17066;DHT22;23120;52.336;21.182;2023-06-10T10:41:10;29.20;44.30
17066;DHT22;23120;52.336;21.182;2023-06-10T10:43:37;29.40;43.60
17066;DHT22;23120;52.336;21.182;2023-06-10T10:46:12;29.40;42.10
17066;DHT22;23120;52.336;21.182;2023-06-10T10:48:40;29.40;42.90
17066;DHT22;23120;52.336;21.182;2023-06-10T10:51:08;29.50;42.20
17066;DHT22;23120;52.336;21.182;2023-06-10T10:53:37;29.60;43.60
17066;DHT22;23120;52.336;21.182;2023-06-10T10:56:13;29.70;43.00
17066;DHT22;23120;52.336;21.182;2023-06-10T10:58:40;29.80;43.40
17066;DHT22;23120;52.336;21.182;2023-06-10T11:01:11;29.80;42.50
17066;DHT22;23120;52.336;21.182;2023-06-10T11:03:42;30.00;43.30
17066;DHT22;23120;52.336;21.182;2023-06-10T11:06:13;30.10;43.30
17066;DHT22;23120;52.336;21.182;2023-06-10T11:08:46;30.10;43.40
17066;DHT22;23120;52.336;21.182;2023-06-10T11:11:24;30.30;43.50
17066;DHT22;23120;52.336;21.182;2023-06-10T11:14:06;30.40;43.50
17066;DHT22;23120;52.336;21.182;2023-06-10T11:16:39;30.60;43.20
17066;DHT22;23120;52.336;21.182;2023-06-10T11:19:07;30.60;41.20
17066;DHT22;23120;52.336;21.182;2023-06-10T11:21:45;30.60;41.90
17066;DHT22;23120;52.336;21.182;2023-06-10T11:24:23;30.70;42.40
17066;DHT22;23120;52.336;21.182;2023-06-10T11:26:52;30.70;41.10
17066;DHT22;23120;52.336;21.182;2023-06-10T11:29:18;30.90;41.00
17066;DHT22;23120;52.336;21.182;2023-06-10T11:31:49;30.90;41.20
17066;DHT22;23120;52.336;21.182;2023-06-10T11:34:22;31.10;41.50
17066;DHT22;23120;52.336;21.182;2023-06-10T11:36:51;31.20;41.70
17066;DHT22;23120;52.336;21.182;2023-06-10T11:39:19;31.30;41.90
17066;DHT22;23120;52.336;21.182;2023-06-10T11:41:46;31.40;40.80
17066;DHT22;23120;52.336;21.182;2023-06-10T11:44:15;31.00;40.10
17066;DHT22;23120;52.336;21.182;2023-06-10T11:46:42;31.10;41.60
17066;DHT22;23120;52.336;21.182;2023-06-10T11:49:09;31.10;42.40
17066;DHT22;23120;52.336;21.182;2023-06-10T11:51:37;31.20;40.10
17066;DHT22;23120;52.336;21.182;2023-06-10T11:54:05;31.00;40.90
17066;DHT22;23120;52.336;21.182;2023-06-10T11:56:32;31.10;42.00
17066;DHT22;23120;52.336;21.182;2023-06-10T11:59:01;31.10;42.00
17066;DHT22;23120;52.336;21.182;2023-06-10T12:01:32;30.90;42.10
17066;DHT22;23120;52.336;21.182;2023-06-10T12:04:00;30.80;42.40
17066;DHT22;23120;52.336;21.182;2023-06-10T12:06:37;30.50;42.20
17066;DHT22;23120;52.336;21.182;2023-06-10T12:09:04;30.50;42.50
17066;DHT22;23120;52.336;21.182;2023-06-10T12:11:31;30.40;43.40
17066;DHT22;23120;52.336;21.182;2023-06-10T12:13:58;30.50;43.40
17066;DHT22;23120;52.336;21.182;2023-06-10T12:16:24;30.40;42.00
17066;DHT22;23120;52.336;21.182;2023-06-10T12:19:01;30.30;43.30
17066;DHT22;23120;52.336;21.182;2023-06-10T12:21:28;30.20;43.80
17066;DHT22;23120;52.336;21.182;2023-06-10T12:24:07;30.20;44.40
17066;DHT22;23120;52.336;21.182;2023-06-10T12:26:39;30.40;45.00
17066;DHT22;23120;52.336;21.182;2023-06-10T12:29:17;30.50;44.90
17066;DHT22;23120;52.336;21.182;2023-06-10T12:31:57;30.70;45.90
17066;DHT22;23120;52.336;21.182;2023-06-10T12:34:30;30.70;45.50
17066;DHT22;23120;52.336;21.182;2023-06-10T12:36:57;30.70;45.50
17066;DHT22;23120;52.336;21.182;2023-06-10T12:39:24;30.60;44.50
17066;DHT22;23120;52.336;21.182;2023-06-10T12:41:52;30.50;44.50
17066;DHT22;23120;52.336;21.182;2023-06-10T12:44:27;30.40;44.10
17066;DHT22;23120;52.336;21.182;2023-06-10T12:46:54;30.30;43.50
17066;DHT22;23120;52.336;21.182;2023-06-10T12:49:22;30.30;44.00
17066;DHT22;23120;52.336;21.182;2023-06-10T12:51:50;30.50;43.70
17066;DHT22;23120;52.336;21.182;2023-06-10T12:54:17;30.60;44.80
17066;DHT22;23120;52.336;21.182;2023-06-10T12:56:44;30.80;44.70
17066;DHT22;23120;52.336;21.182;2023-06-10T12:59:11;30.90;44.90
17066;DHT22;23120;52.336;21.182;2023-06-10T13:01:38;31.00;43.60
17066;DHT22;23120;52.336;21.182;2023-06-10T13:04:05;31.10;44.10
17066;DHT22;23120;52.336;21.182;2023-06-10T13:06:33;31.20;44.00
17066;DHT22;23120;52.336;21.182;2023-06-10T13:09:03;30.90;42.20
17066;DHT22;23120;52.336;21.182;2023-06-10T13:11:32;30.90;42.60
17066;DHT22;23120;52.336;21.182;2023-06-10T13:13:59;30.90;42.70
17066;DHT22;23120;52.336;21.182;2023-06-10T13:16:26;31.10;43.40
17066;DHT22;23120;52.336;21.182;2023-06-10T13:18:56;31.20;43.00
17066;DHT22;23120;52.336;21.182;2023-06-10T13:21:23;31.40;44.00
17066;DHT22;23120;52.336;21.182;2023-06-10T13:23:50;31.60;43.60
17066;DHT22;23120;52.336;21.182;2023-06-10T13:26:18;31.70;43.70
17066;DHT22;23120;52.336;21.182;2023-06-10T13:28:45;31.90;42.80
17066;DHT22;23120;52.336;21.182;2023-06-10T13:31:12;32.00;42.70
17066;DHT22;23120;52.336;21.182;2023-06-10T13:33:39;32.20;42.50
17066;DHT22;23120;52.336;21.182;2023-06-10T13:36:06;32.10;42.00
17066;DHT22;23120;52.336;21.182;2023-06-10T13:38:33;32.30;42.20
17066;DHT22;23120;52.336;21.182;2023-06-10T13:41:00;32.20;41.00
17066;DHT22;23120;52.336;21.182;2023-06-10T13:43:28;32.40;42.80
17066;DHT22;23120;52.336;21.182;2023-06-10T13:45:55;32.50;42.70
17066;DHT22;23120;52.336;21.182;2023-06-10T13:48:22;32.60;42.80
17066;DHT22;23120;52.336;21.182;2023-06-10T13:50:49;32.90;43.20
17066;DHT22;23120;52.336;21.182;2023-06-10T13:53:15;33.00;43.80
17066;DHT22;23120;52.336;21.182;2023-06-10T13:55:42;33.20;41.80
17066;DHT22;23120;52.336;21.182;2023-06-10T13:58:09;33.20;41.50
17066;DHT22;23120;52.336;21.182;2023-06-10T14:00:37;33.30;41.10
17066;DHT22;23120;52.336;21.182;2023-06-10T14:03:04;33.30;41.10
17066;DHT22;23120;52.336;21.182;2023-06-10T14:05:31;33.40;41.30
17066;DHT22;23120;52.336;21.182;2023-06-10T14:07:58;33.40;40.70
17066;DHT22;23120;52.336;21.182;2023-06-10T14:10:26;33.30;39.90
17066;DHT22;23120;52.336;21.182;2023-06-10T14:12:53;33.40;40.60
17066;DHT22;23120;52.336;21.182;2023-06-10T14:15:20;33.50;40.50
17066;DHT22;23120;52.336;21.182;2023-06-10T14:17:48;33.40;40.20
17066;DHT22;23120;52.336;21.182;2023-06-10T14:20:15;33.20;40.00
17066;DHT22;23120;52.336;21.182;2023-06-10T14:22:42;33.40;41.00
17066;DHT22;23120;52.336;21.182;2023-06-10T14:25:09;33.30;40.10
17066;DHT22;23120;52.336;21.182;2023-06-10T14:27:36;33.50;41.30
17066;DHT22;23120;52.336;21.182;2023-06-10T14:30:04;33.60;41.20
17066;DHT22;23120;52.336;21.182;2023-06-10T14:32:31;33.80;40.40
17066;DHT22;23120;52.336;21.182;2023-06-10T14:34:59;33.80;40.20
17066;DHT22;23120;52.336;21.182;2023-06-10T14:37:26;33.60;39.20
17066;DHT22;23120;52.336;21.182;2023-06-10T14:39:53;33.30;39.70
17066;DHT22;23120;52.336;21.182;2023-06-10T14:42:20;33.30;39.20
17066;DHT22;23120;52.336;21.182;2023-06-10T14:44:47;32.90;39.80
17066;DHT22;23120;52.336;21.182;2023-06-10T14:47:13;33.00;39.90
17066;DHT22;23120;52.336;21.182;2023-06-10T14:49:40;32.60;39.60
17066;DHT22;23120;52.336;21.182;2023-06-10T14:52:14;32.00;41.50
17066;DHT22;23120;52.336;21.182;2023-06-10T14:54:41;32.20;41.70
17066;DHT22;23120;52.336;21.182;2023-06-10T14:57:08;32.40;41.80
17066;DHT22;23120;52.336;21.182;2023-06-10T14:59:36;32.20;41.30
17066;DHT22;23120;52.336;21.182;2023-06-10T15:02:03;32.30;40.80
17066;DHT22;23120;52.336;21.182;2023-06-10T15:04:29;32.20;41.00
17066;DHT22;23120;52.336;21.182;2023-06-10T15:06:56;32.20;41.40
17066;DHT22;23120;52.336;21.182;2023-06-10T15:09:24;32.30;42.00
17066;DHT22;23120;52.336;21.182;2023-06-10T15:11:51;32.20;42.20
17066;DHT22;23120;52.336;21.182;2023-06-10T15:14:18;32.40;43.00
17066;DHT22;23120;52.336;21.182;2023-06-10T15:16:45;32.30;42.10
17066;DHT22;23120;52.336;21.182;2023-06-10T15:19:12;32.30;42.10
17066;DHT22;23120;52.336;21.182;2023-06-10T15:21:38;32.30;41.90
17066;DHT22;23120;52.336;21.182;2023-06-10T15:24:06;32.30;41.70